Time;durP1;ratioP1;P1;durP2;ratioP2;P2;SDS_P1;SDS_P2;PMS_P1;PMS_P2;Temp;Humidity;BMP_temperature;BMP_pressure;BME280_temperature;BME280_humidity;BME280_pressure;Samples;Min_cycle;Max_cycle;Signal;HPM_P1;HPM_P2
2022/02/17 00:00:12;;;;;;;14.13;7.33;;;24.00;4.70;;;;;;4993588;28;20819;-55
2022/02/17 00:02:42;;;;;;;9.00;6.70;;;24.00;4.70;;;;;;4994753;28;20433;-55
2022/02/17 00:05:10;;;;;;;13.50;7.47;;;24.00;4.70;;;;;;4977174;28;20400;-55
2022/02/17 00:07:36;;;;;;;14.93;7.13;;;23.90;4.60;;;;;;4995024;28;20937;-55
2022/02/17 00:10:04;;;;;;;10.13;7.47;;;23.90;4.70;;;;;;4997082;28;20433;-55
2022/02/17 00:12:30;;;;;;;11.80;6.97;;;24.00;4.70;;;;;;4997901;28;20457;-55
2022/02/17 00:14:57;;;;;;;9.27;6.00;;;24.00;4.70;;;;;;4998277;28;20550;-55
2022/02/17 00:17:23;;;;;;;11.00;6.33;;;23.90;4.70;;;;;;4979850;28;20427;-55
2022/02/17 00:19:49;;;;;;;7.23;5.40;;;23.60;4.60;;;;;;4979288;28;20927;-55
2022/02/17 00:22:15;;;;;;;8.70;6.53;;;23.90;4.50;;;;;;4980513;28;20465;-55
2022/02/17 00:24:40;;;;;;;10.87;6.37;;;23.90;4.70;;;;;;4997668;28;20187;-55
2022/02/17 00:27:06;;;;;;;10.63;6.37;;;23.90;5.20;;;;;;4997623;28;20423;-55
2022/02/17 00:29:32;;;;;;;8.17;5.43;;;23.90;4.70;;;;;;4998067;28;20176;-55
2022/02/17 00:31:58;;;;;;;9.10;5.53;;;23.90;4.70;;;;;;4996781;28;20894;-55
2022/02/17 00:34:24;;;;;;;8.80;5.30;;;23.90;4.70;;;;;;4997198;28;20176;-55
2022/02/17 00:36:50;;;;;;;9.20;5.80;;;23.90;4.40;;;;;;4997801;28;20208;-55
2022/02/17 00:39:16;;;;;;;10.07;5.80;;;23.90;4.80;;;;;;4997687;28;20423;-55
2022/02/17 00:41:41;;;;;;;10.80;6.30;;;23.90;4.70;;;;;;4978780;28;20965;-55
2022/02/17 00:44:07;;;;;;;6.80;4.90;;;23.90;4.70;;;;;;4997270;28;20616;-55
2022/02/17 00:46:33;;;;;;;6.63;4.97;;;23.90;4.80;;;;;;4997134;28;20251;-55
2022/02/17 00:48:58;;;;;;;13.30;5.43;;;23.90;4.80;;;;;;4996734;28;20176;-55
2022/02/17 00:51:24;;;;;;;10.83;5.37;;;23.90;4.80;;;;;;4996194;28;20176;-55
2022/02/17 00:53:50;;;;;;;7.90;4.93;;;23.90;4.70;;;;;;4996899;28;20187;-55
2022/02/17 00:56:16;;;;;;;7.20;4.80;;;23.90;4.80;;;;;;4997175;28;20629;-55
2022/02/17 00:58:42;;;;;;;6.87;4.87;;;23.90;4.80;;;;;;4997165;28;20191;-55
2022/02/17 01:01:07;;;;;;;7.17;5.00;;;23.90;4.70;;;;;;4998872;28;20925;-56
2022/02/17 01:03:34;;;;;;;9.27;5.73;;;23.90;4.70;;;;;;5017107;28;20660;-55
2022/02/17 01:06:01;;;;;;;6.53;4.80;;;23.90;4.70;;;;;;4999269;28;20183;-55
2022/02/17 01:08:26;;;;;;;8.53;5.00;;;23.90;4.70;;;;;;5014844;28;20453;-55
2022/02/17 01:10:52;;;;;;;5.60;4.27;;;24.00;4.80;;;;;;5016051;28;20866;-55
2022/02/17 01:13:19;;;;;;;10.60;4.70;;;24.00;4.70;;;;;;5016064;28;20810;-55
2022/02/17 01:15:45;;;;;;;10.07;5.20;;;23.90;4.70;;;;;;4998757;28;20203;-55
2022/02/17 01:18:10;;;;;;;13.40;5.90;;;23.90;4.80;;;;;;5015972;28;20460;-55
2022/02/17 01:20:36;;;;;;;7.30;4.20;;;24.00;4.80;;;;;;5014761;28;20175;-55
2022/02/17 01:23:02;;;;;;;12.23;5.10;;;23.90;4.70;;;;;;5015725;28;20610;-55
2022/02/17 01:25:27;;;;;;;7.83;4.90;;;23.90;4.80;;;;;;4998113;28;20202;-55
2022/02/17 01:27:54;;;;;;;12.33;5.23;;;23.90;4.80;;;;;;5015974;28;20269;-55
2022/02/17 01:30:20;;;;;;;10.90;5.30;;;23.90;4.80;;;;;;5015139;28;20179;-55
2022/02/17 01:32:45;;;;;;;6.30;4.87;;;23.90;4.70;;;;;;4998171;28;20474;-55
2022/02/17 01:35:11;;;;;;;7.53;4.90;;;23.90;4.70;;;;;;5015926;28;20207;-55
2022/02/17 01:37:37;;;;;;;9.87;5.13;;;23.90;4.80;;;;;;5015633;28;20545;-55
2022/02/17 01:40:03;;;;;;;7.40;5.37;;;23.80;4.70;;;;;;5015136;28;20179;-55
2022/02/17 01:42:29;;;;;;;9.90;5.70;;;23.80;4.70;;;;;;4997564;28;20225;-55
2022/02/17 01:44:55;;;;;;;10.80;6.00;;;23.90;4.50;;;;;;5015834;28;20449;-56
2022/02/17 01:47:20;;;;;;;10.30;5.43;;;23.80;4.50;;;;;;5014950;28;20237;-55
2022/02/17 01:49:47;;;;;;;11.23;4.87;;;23.80;4.40;;;;;;5015123;28;20233;-55
2022/02/17 01:52:15;;;;;;;6.33;4.83;;;23.70;4.50;;;;;;5016121;28;20195;-55
2022/02/17 01:54:43;;;;;;;7.20;5.00;;;23.80;4.40;;;;;;5015372;28;20434;-55
2022/02/17 01:57:18;;;;;;;9.20;4.80;;;23.80;4.70;;;;;;4997607;28;20414;-55
2022/02/17 01:59:44;;;;;;;7.57;5.50;;;23.80;4.70;;;;;;5015078;28;20405;-55
2022/02/17 02:02:10;;;;;;;6.70;5.40;;;23.80;4.30;;;;;;5015153;28;20767;-55
2022/02/17 02:04:37;;;;;;;9.67;5.03;;;23.80;4.30;;;;;;5014761;28;20421;-55
2022/02/17 02:07:04;;;;;;;8.47;5.53;;;23.80;4.20;;;;;;5014634;28;20187;-55
2022/02/17 02:09:31;;;;;;;8.10;4.60;;;23.80;4.20;;;;;;4997592;28;20542;-56
2022/02/17 02:11:57;;;;;;;8.37;5.47;;;23.80;4.50;;;;;;4997229;28;20418;-56
2022/02/17 02:14:23;;;;;;;6.43;5.10;;;23.80;4.20;;;;;;5015209;28;20441;-56
2022/02/17 02:16:50;;;;;;;5.73;4.70;;;23.40;4.20;;;;;;5015490;28;20944;-56
2022/02/17 02:19:15;;;;;;;7.20;4.50;;;23.80;4.40;;;;;;4997514;28;20313;-56
2022/02/17 02:21:41;;;;;;;5.20;4.27;;;23.80;4.50;;;;;;5014381;28;20453;-56
2022/02/17 02:24:07;;;;;;;6.80;4.40;;;23.80;4.60;;;;;;4997651;28;20324;-55
2022/02/17 02:26:33;;;;;;;10.43;5.20;;;23.80;4.60;;;;;;4997604;28;20796;-56
2022/02/17 02:29:00;;;;;;;7.30;4.90;;;23.70;4.20;;;;;;5015557;28;20488;-56
2022/02/17 02:31:25;;;;;;;6.13;4.47;;;23.70;4.40;;;;;;5013905;28;20187;-56
2022/02/17 02:33:51;;;;;;;6.60;4.87;;;23.70;4.60;;;;;;5014608;28;20426;-56
2022/02/17 02:36:17;;;;;;;6.27;4.40;;;23.70;4.50;;;;;;5014981;28;20213;-56
2022/02/17 02:38:43;;;;;;;7.47;4.37;;;23.70;4.50;;;;;;5014654;28;20277;-56
2022/02/17 02:41:09;;;;;;;6.10;4.70;;;23.70;4.20;;;;;;5014110;28;20626;-56
2022/02/17 02:43:38;;;;;;;5.20;4.20;;;23.70;4.20;;;;;;5014920;28;20174;-56
2022/02/17 02:46:06;;;;;;;5.60;4.17;;;23.70;4.20;;;;;;5015229;28;20425;-55
2022/02/17 02:48:32;;;;;;;4.90;4.00;;;23.40;4.30;;;;;;5014549;28;20422;-55
2022/02/17 02:50:57;;;;;;;7.07;3.97;;;23.70;4.40;;;;;;5013129;28;20424;-55
2022/02/17 02:53:23;;;;;;;4.27;3.70;;;23.60;4.20;;;;;;5014518;28;20195;-56
2022/02/17 02:55:49;;;;;;;5.87;3.80;;;23.70;4.40;;;;;;5015145;28;20543;-56
2022/02/17 02:58:17;;;;;;;4.20;3.80;;;23.70;4.00;;;;;;5014587;28;20514;-56
2022/02/17 03:00:45;;;;;;;4.63;3.60;;;24.00;3.90;;;;;;4979971;28;20430;-56
2022/02/17 03:03:12;;;;;;;5.40;3.90;;;23.70;3.80;;;;;;5014374;28;20433;-56
2022/02/17 03:05:39;;;;;;;4.30;3.20;;;23.70;4.30;;;;;;5014080;28;20468;-56
2022/02/17 03:08:05;;;;;;;5.20;3.67;;;23.70;3.90;;;;;;4997465;28;20426;-56
2022/02/17 03:10:31;;;;;;;4.90;3.70;;;23.70;3.90;;;;;;4996185;28;20422;-56
2022/02/17 03:13:00;;;;;;;5.47;4.10;;;23.90;4.00;;;;;;4996366;28;20437;-56
2022/02/17 03:15:27;;;;;;;6.20;4.27;;;23.70;3.80;;;;;;5014047;28;20210;-55
2022/02/17 03:17:53;;;;;;;6.30;3.70;;;23.70;3.90;;;;;;5014400;28;20418;-55
2022/02/17 03:20:20;;;;;;;5.03;3.53;;;23.70;3.90;;;;;;5013410;28;20579;-55
2022/02/17 03:22:46;;;;;;;5.37;3.97;;;23.40;3.80;;;;;;5013939;28;20418;-55
2022/02/17 03:25:14;;;;;;;4.30;3.40;;;23.50;4.00;;;;;;5014286;28;20457;-55
2022/02/17 03:27:40;;;;;;;5.33;3.20;;;23.70;4.10;;;;;;5014229;28;20471;-55
2022/02/17 03:30:09;;;;;;;4.93;3.37;;;23.70;3.90;;;;;;5012209;28;20430;-55
2022/02/17 03:32:36;;;;;;;4.43;3.10;;;23.70;3.90;;;;;;5014396;28;20183;-55
2022/02/17 03:35:04;;;;;;;5.50;3.67;;;23.60;3.80;;;;;;4996127;28;20949;-55
2022/02/17 03:37:30;;;;;;;4.20;3.07;;;23.60;3.70;;;;;;4996008;28;20414;-55
2022/02/17 03:39:56;;;;;;;3.73;2.80;;;23.60;3.80;;;;;;4995764;28;20912;-55
2022/02/17 03:42:21;;;;;;;6.03;3.63;;;23.70;3.90;;;;;;4996782;28;20260;-55
2022/02/17 03:44:47;;;;;;;6.23;4.20;;;23.70;3.70;;;;;;4998703;28;20442;-56
2022/02/17 03:47:13;;;;;;;5.10;3.30;;;23.70;3.80;;;;;;5017495;28;20220;-56
2022/02/17 03:49:39;;;;;;;4.70;3.30;;;23.70;3.50;;;;;;5017984;28;20175;-55
2022/02/17 03:52:05;;;;;;;7.20;3.63;;;23.60;3.50;;;;;;5016992;28;20410;-55
2022/02/17 03:54:31;;;;;;;5.73;3.30;;;23.60;3.50;;;;;;4999270;28;20634;-55
2022/02/17 03:56:56;;;;;;;7.03;3.53;;;23.60;3.50;;;;;;5017021;28;20472;-55
2022/02/17 03:59:22;;;;;;;7.33;3.60;;;23.40;3.30;;;;;;5017909;28;20175;-55
2022/02/17 04:01:48;;;;;;;4.10;3.17;;;23.60;3.40;;;;;;4999616;28;20186;-55
2022/02/17 04:04:13;;;;;;;5.53;3.23;;;23.60;3.60;;;;;;5017816;28;20206;-55
2022/02/17 04:06:40;;;;;;;5.10;2.73;;;23.60;3.50;;;;;;5000127;28;20191;-55
2022/02/17 04:09:06;;;;;;;6.50;3.17;;;23.60;3.70;;;;;;4999914;28;20269;-55
2022/02/17 04:11:33;;;;;;;5.20;2.87;;;23.60;3.70;;;;;;5016877;28;20560;-55
2022/02/17 04:13:59;;;;;;;8.90;3.30;;;23.60;3.60;;;;;;5017421;28;20429;-55
2022/02/17 04:16:25;;;;;;;5.60;3.10;;;23.60;3.60;;;;;;5016484;28;20469;-55
2022/02/17 04:18:51;;;;;;;5.83;2.77;;;23.50;3.50;;;;;;5017287;28;20576;-55
2022/02/17 04:21:19;;;;;;;9.00;3.00;;;23.60;3.30;;;;;;4999371;28;20889;-56
2022/02/17 04:23:45;;;;;;;6.80;2.70;;;23.60;3.30;;;;;;5017164;28;20230;-56
2022/02/17 04:26:17;;;;;;;9.47;2.90;;;23.60;3.50;;;;;;4983399;28;20434;-55
2022/02/17 04:28:45;;;;;;;3.90;2.73;;;23.60;3.40;;;;;;5017310;28;20438;-56
2022/02/17 04:31:11;;;;;;;4.10;2.63;;;23.60;3.50;;;;;;5015993;28;20425;-55
2022/02/17 04:33:39;;;;;;;8.27;2.80;;;23.60;3.40;;;;;;5016941;28;20421;-55
2022/02/17 04:36:06;;;;;;;5.77;2.63;;;23.60;3.60;;;;;;5016721;28;20469;-55
2022/02/17 04:38:31;;;;;;;3.90;2.70;;;23.60;3.40;;;;;;5016811;28;20414;-55
2022/02/17 04:43:43;;;;;;;4.53;3.00;;;23.60;3.30;;;;;;5002166;28;20224;-56
2022/02/17 04:46:11;;;;;;;3.80;3.13;;;23.60;3.20;;;;;;5016716;28;20427;-55
2022/02/17 04:48:37;;;;;;;7.47;3.10;;;23.60;3.40;;;;;;5016726;28;20429;-55
2022/02/17 04:51:03;;;;;;;4.60;3.20;;;23.60;3.60;;;;;;5016506;28;20456;-55
2022/02/17 04:53:29;;;;;;;5.30;2.90;;;23.70;3.50;;;;;;5016974;28;20178;-55
2022/02/17 04:55:55;;;;;;;3.43;2.67;;;23.60;3.30;;;;;;5016001;28;20828;-55
2022/02/17 04:58:22;;;;;;;4.30;2.40;;;23.60;3.40;;;;;;5016618;28;20189;-55
2022/02/17 05:00:48;;;;;;;3.70;2.30;;;23.60;3.50;;;;;;5016149;28;20175;-55
2022/02/17 05:03:15;;;;;;;5.30;2.50;;;23.50;3.40;;;;;;4999149;28;20433;-55
2022/02/17 05:05:41;;;;;;;4.30;2.50;;;23.60;3.60;;;;;;5016682;28;20418;-55
2022/02/17 05:08:06;;;;;;;3.90;2.50;;;23.50;3.20;;;;;;5016007;28;20424;-55
2022/02/17 05:10:32;;;;;;;4.77;2.70;;;23.60;3.30;;;;;;5015902;28;20202;-55
2022/02/17 05:12:58;;;;;;;4.10;2.43;;;23.60;3.30;;;;;;5016167;28;20183;-55
2022/02/17 05:15:24;;;;;;;4.23;2.80;;;23.60;3.30;;;;;;4998391;28;20214;-55
2022/02/17 05:17:50;;;;;;;6.87;3.00;;;23.60;3.30;;;;;;5016311;28;20425;-55
2022/02/17 05:20:15;;;;;;;4.63;2.60;;;23.60;3.10;;;;;;5016130;28;20175;-55
2022/02/17 05:22:43;;;;;;;5.70;2.87;;;23.60;3.70;;;;;;5016136;28;20253;-55
2022/02/17 05:25:10;;;;;;;3.70;2.63;;;23.60;3.20;;;;;;5016215;28;20183;-55
2022/02/17 05:27:37;;;;;;;4.90;2.83;;;23.50;3.20;;;;;;5016121;28;20433;-55
2022/02/17 05:30:03;;;;;;;5.47;2.80;;;23.30;3.00;;;;;;5015413;28;20781;-55
2022/02/17 05:32:29;;;;;;;3.63;2.37;;;23.50;3.20;;;;;;5015930;28;20430;-55
2022/02/17 05:34:55;;;;;;;6.50;2.60;;;23.50;3.10;;;;;;5015823;28;20429;-55
2022/02/17 05:37:20;;;;;;;5.00;2.37;;;23.50;3.10;;;;;;4998143;28;20194;-55
2022/02/17 05:39:46;;;;;;;5.40;2.90;;;23.50;3.10;;;;;;5015849;28;20183;-55
2022/02/17 05:42:11;;;;;;;3.90;2.07;;;23.50;3.20;;;;;;5015821;28;20168;-55
2022/02/17 05:44:37;;;;;;;4.43;2.50;;;23.50;3.20;;;;;;5015789;28;20191;-55
2022/02/17 05:47:03;;;;;;;4.77;2.40;;;23.50;3.20;;;;;;5015368;28;20214;-55
2022/02/17 05:49:29;;;;;;;7.37;2.90;;;23.50;3.20;;;;;;5015035;28;20179;-55
2022/02/17 05:51:54;;;;;;;4.57;2.53;;;23.60;3.50;;;;;;5014984;28;20890;-55
2022/02/17 05:54:20;;;;;;;5.63;2.97;;;23.50;3.00;;;;;;5015411;28;20594;-55
2022/02/17 05:56:46;;;;;;;4.17;2.60;;;23.50;3.20;;;;;;5015675;28;20696;-55
2022/02/17 05:59:11;;;;;;;8.20;2.40;;;23.50;3.20;;;;;;5015217;28;20654;-55
2022/02/17 06:01:37;;;;;;;5.40;2.10;;;23.50;3.20;;;;;;5014373;28;20681;-55
2022/02/17 06:04:03;;;;;;;4.07;2.23;;;23.50;3.10;;;;;;5015346;28;20689;-55
2022/02/17 06:06:28;;;;;;;2.90;2.20;;;23.50;3.20;;;;;;4997497;28;20182;-55
2022/02/17 06:08:54;;;;;;;5.83;2.60;;;23.50;3.20;;;;;;4997316;28;20638;-55
2022/02/17 06:11:20;;;;;;;3.10;2.30;;;23.20;2.80;;;;;;5012502;28;20175;-55
2022/02/17 06:13:45;;;;;;;8.33;2.73;;;23.50;2.90;;;;;;5014280;28;20206;-55
2022/02/17 06:16:11;;;;;;;4.00;2.10;;;23.50;3.10;;;;;;5014008;28;20277;-55
2022/02/17 06:18:37;;;;;;;3.00;2.30;;;23.50;3.20;;;;;;5014065;28;20574;-55
2022/02/17 06:21:02;;;;;;;9.60;2.43;;;23.50;3.00;;;;;;4995806;28;20736;-55
2022/02/17 06:23:28;;;;;;;2.80;2.30;;;23.50;2.80;;;;;;5014307;28;20202;-55
2022/02/17 06:25:53;;;;;;;7.03;2.40;;;23.50;2.70;;;;;;5013890;28;20183;-56
2022/02/17 06:28:19;;;;;;;8.47;2.50;;;23.50;2.90;;;;;;5013602;28;20530;-56
2022/02/17 06:30:47;;;;;;;5.43;2.20;;;23.50;2.90;;;;;;5013228;28;20630;-56
2022/02/17 06:33:12;;;;;;;4.30;2.70;;;23.40;2.90;;;;;;5013607;28;20422;-56
2022/02/17 06:35:38;;;;;;;3.67;2.30;;;23.50;2.90;;;;;;5013570;28;20477;-55
2022/02/17 06:38:06;;;;;;;4.40;2.47;;;23.50;2.90;;;;;;5013468;28;20178;-55
2022/02/17 06:40:33;;;;;;;4.93;2.63;;;23.50;2.80;;;;;;5012067;28;20183;-55
2022/02/17 06:43:07;;;;;;;4.10;2.60;;;23.50;2.60;;;;;;4996103;28;20418;-55
2022/02/17 06:45:34;;;;;;;3.80;2.33;;;23.30;2.70;;;;;;5013384;28;21029;-56
2022/02/17 06:48:00;;;;;;;4.83;2.53;;;23.50;3.10;;;;;;5013419;28;20417;-56
2022/02/17 06:50:26;;;;;;;3.80;2.20;;;23.50;2.70;;;;;;5012967;28;20425;-55
2022/02/17 06:52:52;;;;;;;5.73;2.67;;;23.50;2.50;;;;;;4990520;28;20440;-58
2022/02/17 06:55:18;;;;;;;13.27;2.63;;;23.60;2.70;;;;;;5011950;28;20249;-56
2022/02/17 06:57:43;;;;;;;7.83;2.80;;;23.80;2.50;;;;;;4993871;28;20437;-57
2022/02/17 07:00:11;;;;;;;7.63;3.20;;;23.80;2.60;;;;;;5009257;28;20187;-57
2022/02/17 07:02:36;;;;;;;5.50;2.60;;;23.60;2.40;;;;;;5012657;28;20183;-57
2022/02/17 07:05:04;;;;;;;12.53;3.23;;;23.80;2.80;;;;;;5012931;28;20480;-56
2022/02/17 07:07:35;;;;;;;12.03;3.13;;;23.70;2.70;;;;;;5012632;28;20623;-55
2022/02/17 07:10:03;;;;;;;5.03;2.53;;;23.80;3.00;;;;;;4994995;28;20465;-52
2022/02/17 07:12:28;;;;;;;9.57;2.50;;;24.00;3.00;;;;;;5013440;28;20451;-54
2022/02/17 07:14:57;;;;;;;7.73;2.73;;;24.00;2.70;;;;;;4993660;28;20454;-58
2022/02/17 07:17:24;;;;;;;5.83;2.60;;;24.00;3.30;;;;;;5013715;28;20171;-56
2022/02/17 07:19:49;;;;;;;6.00;2.90;;;24.10;3.40;;;;;;5012801;28;20418;-56
2022/02/17 07:22:15;;;;;;;10.23;2.67;;;24.10;3.20;;;;;;5012994;28;20422;-56
2022/02/17 07:24:41;;;;;;;7.53;2.53;;;23.80;2.50;;;;;;5013019;28;20174;-54
2022/02/17 07:27:07;;;;;;;11.30;3.80;;;24.20;2.90;;;;;;5013181;28;20218;-56
2022/02/17 07:29:32;;;;;;;10.23;3.90;;;24.10;2.80;;;;;;5012055;28;20179;-57
2022/02/17 07:31:58;;;;;;;9.73;3.83;;;24.10;2.90;;;;;;5006682;28;20199;-57
2022/02/17 07:34:24;;;;;;;10.63;4.07;;;23.90;2.90;;;;;;4993151;28;20176;-58
2022/02/17 07:36:49;;;;;;;14.20;3.77;;;24.20;2.80;;;;;;4992721;28;20222;-56
2022/02/17 07:39:15;;;;;;;15.67;4.73;;;24.20;2.40;;;;;;4991785;28;20251;-59
2022/02/17 07:41:41;;;;;;;16.83;5.40;;;24.20;2.60;;;;;;5000047;28;20175;-58
2022/02/17 07:44:08;;;;;;;11.97;4.40;;;24.00;3.00;;;;;;4992766;28;20261;-58
2022/02/17 07:46:34;;;;;;;11.23;3.70;;;24.20;2.80;;;;;;4992701;28;20207;-58
2022/02/17 07:49:02;;;;;;;24.73;5.90;;;24.10;2.90;;;;;;5000415;28;20417;-58
2022/02/17 07:51:32;;;;;;;16.90;5.30;;;24.10;2.30;;;;;;5011465;28;20418;-58
2022/02/17 07:53:58;;;;;;;15.67;5.33;;;24.20;2.20;;;;;;5012262;28;20776;-58
2022/02/17 07:56:24;;;;;;;19.13;5.50;;;24.20;2.20;;;;;;4994300;28;20470;-58
2022/02/17 07:58:49;;;;;;;19.50;5.43;;;24.10;2.10;;;;;;5012558;28;20179;-58
2022/02/17 08:01:16;;;;;;;15.10;5.63;;;24.20;2.10;;;;;;5011805;28;20271;-55
2022/02/17 08:03:41;;;;;;;26.92;6.03;;;23.90;2.10;;;;;;4994602;28;20466;-56
2022/02/17 08:06:07;;;;;;;16.33;5.37;;;24.30;2.40;;;;;;5012681;28;20243;-55
2022/02/17 08:08:33;;;;;;;12.10;4.33;;;24.40;2.70;;;;;;4991634;28;20184;-58
2022/02/17 08:10:59;;;;;;;18.97;5.10;;;24.40;2.60;;;;;;4992298;28;20445;-56
2022/02/17 08:13:25;;;;;;;18.35;5.30;;;24.40;2.60;;;;;;4990921;28;20425;-56
2022/02/17 08:15:52;;;;;;;17.60;6.30;;;24.40;2.60;;;;;;4991338;28;20199;-56
2022/02/17 08:18:18;;;;;;;12.90;4.67;;;24.30;2.60;;;;;;5012943;28;20176;-56
2022/02/17 08:20:45;;;;;;;14.03;4.73;;;24.40;2.30;;;;;;5011707;28;20724;-56
2022/02/17 08:23:11;;;;;;;16.33;4.50;;;24.30;2.20;;;;;;5013101;28;20175;-56
2022/02/17 08:25:37;;;;;;;12.53;5.30;;;24.30;2.10;;;;;;4995396;28;20441;-56
2022/02/17 08:28:03;;;;;;;12.80;4.60;;;24.30;2.10;;;;;;5013047;28;20798;-56
2022/02/17 08:30:29;;;;;;;11.53;4.37;;;24.30;1.90;;;;;;5012612;28;20422;-56
2022/02/17 08:32:56;;;;;;;13.80;5.00;;;24.10;2.00;;;;;;5015985;28;20910;-56
2022/02/17 08:35:22;;;;;;;21.60;5.20;;;24.30;2.00;;;;;;5016191;28;20453;-54
2022/02/17 08:37:48;;;;;;;14.43;5.37;;;24.40;2.40;;;;;;5016455;28;20418;-58
2022/02/17 08:40:14;;;;;;;13.75;5.47;;;24.50;2.00;;;;;;4997997;28;20561;-57
2022/02/17 08:42:41;;;;;;;14.20;5.30;;;24.30;1.60;;;;;;5015799;28;20225;-54
2022/02/17 08:45:09;;;;;;;15.97;5.47;;;24.40;1.60;;;;;;5016261;28;20217;-57
2022/02/17 08:47:35;;;;;;;13.27;4.70;;;24.60;1.50;;;;;;5013935;28;20775;-57
2022/02/17 08:50:02;;;;;;;12.60;4.60;;;24.60;1.30;;;;;;5015865;28;20425;-57
2022/02/17 08:52:27;;;;;;;18.40;4.90;;;24.60;1.40;;;;;;5016199;28;20418;-57
2022/02/17 08:54:53;;;;;;;12.87;5.30;;;24.60;1.10;;;;;;5016037;28;20920;-56
2022/02/17 08:57:19;;;;;;;16.58;4.60;;;24.60;1.40;;;;;;5015109;28;20889;-61
2022/02/17 08:59:45;;;;;;;16.13;5.23;;;24.60;1.50;;;;;;5014751;28;20904;-60
2022/02/17 09:02:10;;;;;;;9.30;4.40;;;24.60;1.40;;;;;;5015896;28;20414;-57
2022/02/17 09:04:38;;;;;;;26.43;6.23;;;24.70;1.00;;;;;;5016302;28;20181;-55
2022/02/17 09:07:04;;;;;;;10.20;4.47;;;24.70;1.00;;;;;;5016032;28;20187;-60
2022/02/17 09:09:31;;;;;;;10.27;4.90;;;24.80;1.00;;;;;;5009206;28;20479;-55
2022/02/17 09:11:56;;;;;;;13.53;4.83;;;24.60;1.00;;;;;;4997659;28;20179;-58
2022/02/17 09:14:22;;;;;;;12.73;5.10;;;24.70;1.00;;;;;;5014663;28;20415;-57
2022/02/17 09:16:50;;;;;;;13.47;4.93;;;24.70;1.00;;;;;;5014086;28;20237;-56
2022/02/17 09:19:16;;;;;;;11.47;5.10;;;24.70;1.00;;;;;;5030657;28;20183;-56
2022/02/17 09:21:42;;;;;;;23.23;5.73;;;24.70;1.00;;;;;;5013595;28;20452;-57
2022/02/17 09:24:07;;;;;;;21.80;5.87;;;24.70;1.40;;;;;;5013294;28;20502;-60
2022/02/17 09:26:35;;;;;;;13.53;4.60;;;24.90;1.00;;;;;;5014477;28;20837;-56
2022/02/17 09:29:00;;;;;;;28.03;5.67;;;25.10;1.00;;;;;;5013984;28;20171;-58
2022/02/17 09:31:26;;;;;;;14.13;5.23;;;25.20;1.00;;;;;;5014649;28;20497;-58
2022/02/17 09:33:56;;;;;;;10.73;4.63;;;25.30;1.00;;;;;;5015817;28;20229;-58
2022/02/17 09:36:25;;;;;;;15.10;5.00;;;25.20;1.00;;;;;;5013812;28;20207;-58
2022/02/17 09:38:53;;;;;;;13.10;5.67;;;25.20;1.00;;;;;;5015219;28;20422;-56
2022/02/17 09:41:21;;;;;;;7.50;4.80;;;25.30;1.00;;;;;;5014069;28;20414;-57
2022/02/17 09:43:49;;;;;;;15.43;5.40;;;25.10;1.00;;;;;;5013697;28;20498;-61
2022/02/17 09:46:21;;;;;;;11.83;4.73;;;25.00;1.00;;;;;;5000398;28;20426;-59
2022/02/17 09:49:00;;;;;;;12.10;5.22;;;25.20;1.00;;;;;;5014405;28;20453;-58
2022/02/17 09:51:28;;;;;;;15.27;5.70;;;25.00;1.00;;;;;;4996347;28;20183;-56
2022/02/17 09:53:54;;;;;;;15.40;5.10;;;24.90;1.10;;;;;;5014645;28;20418;-59
2022/02/17 09:56:24;;;;;;;15.30;5.20;;;24.90;1.00;;;;;;4996763;28;20457;-59
2022/02/17 09:58:51;;;;;;;11.00;5.47;;;24.90;1.00;;;;;;5014858;28;20828;-56
2022/02/17 10:01:26;;;;;;;15.70;9.23;;;24.90;1.00;;;;;;5011994;28;20423;-58
2022/02/17 10:04:15;;;;;;;15.57;9.30;;;24.80;1.00;;;;;;4997582;28;20419;-58
2022/02/17 10:06:42;;;;;;;13.57;8.10;;;24.80;1.00;;;;;;5014084;28;20430;-58
2022/02/17 10:09:09;;;;;;;13.90;8.03;;;24.80;1.00;;;;;;5013762;28;20535;-57
2022/02/17 10:11:35;;;;;;;9.60;5.63;;;24.80;1.00;;;;;;5014170;28;20414;-57
2022/02/17 10:14:07;;;;;;;14.02;7.00;;;24.80;1.00;;;;;;5013336;28;20566;-55
2022/02/17 10:17:05;;;;;;;13.60;7.80;;;24.80;1.00;;;;;;5014515;28;20294;-58
2022/02/17 10:19:37;;;;;;;14.23;6.60;;;24.80;1.00;;;;;;4997467;28;20464;-60
2022/02/17 10:22:11;;;;;;;12.20;6.05;;;24.90;1.00;;;;;;5012418;28;20422;-57
